createdAt,value
2019-05-17T06:03:42.855Z,100664.41
2019-05-17T06:04:22.168Z,100629.66
2019-05-17T06:04:58.979Z,100665.59
2019-05-17T06:05:35.332Z,100675.08
2019-05-17T06:06:12.557Z,100667.70
2019-05-17T06:06:52.092Z,100668.53
2019-05-17T06:07:28.013Z,100667.95
2019-05-17T06:08:04.570Z,100667.41
2019-05-17T06:08:41.606Z,100668.69
2019-05-17T06:09:18.301Z,100662.22
2019-05-17T06:09:55.337Z,100720.10
2019-05-17T06:10:32.592Z,100735.81
2019-05-17T06:11:09.530Z,100656.52
2019-05-17T06:11:47.431Z,100656.52
2019-05-17T06:12:28.104Z,100720.05
2019-05-17T06:13:03.712Z,100741.20
2019-05-17T06:13:41.870Z,100789.45
2019-05-17T06:14:21.475Z,100814.51
2019-05-17T06:14:59.871Z,100831.38
2019-05-17T06:15:36.928Z,100828.61
2019-05-17T06:16:13.525Z,100834.09
2019-05-17T06:16:51.815Z,100813.17
2019-05-17T06:17:27.919Z,100822.73
2019-05-17T06:18:05.871Z,100820.00
2019-05-17T06:18:42.642Z,100828.22
2019-05-17T06:19:19.606Z,100824.15
2019-05-17T06:19:56.956Z,100808.25
2019-05-17T06:20:33.941Z,100808.25
2019-05-17T06:21:16.683Z,100808.70
2019-05-17T06:21:54.282Z,100808.26
2019-05-17T06:22:31.836Z,100814.19
2019-05-17T06:23:11.927Z,100808.77
2019-05-17T06:23:48.426Z,100797.77
2019-05-17T06:24:25.714Z,100797.77
2019-05-17T06:25:04.011Z,100828.22
2019-05-17T06:25:43.753Z,100821.84
2019-05-17T06:26:23.497Z,100824.09
2019-05-17T06:26:58.369Z,100820.89
2019-05-17T06:27:35.739Z,100820.89
2019-05-17T06:28:12.875Z,100819.05
2019-05-17T06:28:53.972Z,100807.67
2019-05-17T06:29:33.693Z,100837.26
2019-05-17T06:30:12.675Z,100836.80
2019-05-17T06:30:51.968Z,100856.78
2019-05-17T06:31:28.249Z,100903.23
2019-05-17T06:32:05.023Z,100903.23
2019-05-17T06:32:43.264Z,100843.63
2019-05-17T06:33:27.959Z,100840.45
2019-05-17T06:33:58.696Z,100845.47
2019-05-17T06:34:35.988Z,100830.05
2019-05-17T06:35:13.470Z,100830.05
2019-05-17T06:35:52.371Z,100847.31
2019-05-17T06:36:28.722Z,100828.72
2019-05-17T06:37:05.691Z,100807.34
2019-05-17T06:37:42.784Z,100827.34
2019-05-17T06:38:22.481Z,100827.34
2019-05-17T06:38:57.843Z,100829.64
2019-05-17T06:39:34.488Z,100829.64
2019-05-17T06:40:12.701Z,100829.19
2019-05-17T06:40:48.480Z,100829.22
2019-05-17T06:41:25.381Z,100832.83
2019-05-17T06:42:02.868Z,100813.30
2019-05-17T06:42:44.117Z,100736.94
2019-05-17T06:43:18.768Z,100705.55
2019-05-17T06:43:56.001Z,100713.22
2019-05-17T06:44:32.840Z,100709.98
2019-05-17T13:07:40.491Z,100502.23
2019-05-17T13:08:17.154Z,100501.27
2019-05-17T13:08:54.439Z,100496.20
2019-05-17T13:09:31.112Z,100494.25
2019-05-17T13:10:09.081Z,100544.13
2019-05-17T13:10:46.885Z,100602.20
2019-05-17T13:11:23.991Z,100617.55
2019-05-17T13:12:01.541Z,100614.27
2019-05-17T13:12:38.368Z,100604.11
2019-05-17T13:13:14.474Z,100613.06
2019-05-17T13:13:52.624Z,100607.50
2019-05-17T13:14:30.260Z,100629.19
2019-05-17T13:15:08.298Z,100638.66
2019-05-17T13:15:45.684Z,100621.66
2019-05-17T13:16:23.351Z,100647.47
2019-05-17T13:16:59.974Z,100580.82
2019-05-17T13:17:36.705Z,100551.06
2019-05-17T13:18:13.758Z,100618.84
2019-05-17T13:18:50.306Z,100618.70
2019-05-17T13:19:28.391Z,100599.87
2019-05-17T13:20:09.264Z,100609.30
2019-05-17T13:20:45.592Z,100605.06
